Time;durP1;ratioP1;P1;durP2;ratioP2;P2;SDS_P1;SDS_P2;PMS_P1;PMS_P2;Temp;Humidity;BMP_temperature;BMP_pressure;BME280_temperature;BME280_humidity;BME280_pressure;Samples;Min_cycle;Max_cycle;Signal;HPM_P1;HPM_P2
2022/01/02 00:00:22;;;;;;;7.73;3.30;;;13.70;86.80;;;;;;5055832;28;20198;-81
2022/01/02 00:03:07;;;;;;;5.93;3.23;;;13.70;86.90;;;;;;5041172;28;20187;-81
2022/01/02 00:05:50;;;;;;;6.57;3.30;;;13.60;87.80;;;;;;5059428;28;20177;-84
2022/01/02 00:08:33;;;;;;;6.60;2.93;;;13.70;87.10;;;;;;5042435;28;20238;-86
2022/01/02 00:11:27;;;;;;;6.70;3.60;;;13.60;88.80;;;;;;5057383;28;20511;-85
2022/01/02 00:14:18;;;;;;;7.30;2.60;;;13.50;90.00;;;;;;5056316;28;20174;-88
2022/01/02 00:17:24;;;;;;;9.13;3.33;;;13.50;90.10;;;;;;5056178;28;20163;-88
2022/01/02 00:23:22;;;;;;;5.20;2.80;;;13.50;89.20;;;;;;5046522;28;20251;-88
2022/01/02 00:26:15;;;;;;;9.87;3.53;;;13.50;89.30;;;;;;5042639;28;20174;-91
2022/01/02 00:32:07;;;;;;;11.03;3.57;;;13.40;91.00;;;;;;5046028;28;20167;-84
2022/01/02 00:34:38;;;;;;;6.33;3.30;;;13.50;90.20;;;;;;5048544;28;20188;-82
2022/01/02 00:37:36;;;;;;;9.13;3.57;;;13.70;89.80;;;;;;5050788;28;20185;-90
2022/01/02 00:40:25;;;;;;;5.80;3.37;;;13.70;89.50;;;;;;5046853;28;20167;-93
2022/01/02 00:43:12;;;;;;;9.03;3.27;;;13.50;91.00;;;;;;5042801;28;20259;-91
2022/01/02 00:45:45;;;;;;;9.07;3.83;;;13.70;90.90;;;;;;5046200;28;20231;-91
2022/01/02 00:48:24;;;;;;;7.00;3.30;;;13.60;91.70;;;;;;5047450;28;20250;-88
2022/01/02 00:50:52;;;;;;;6.77;3.47;;;13.50;92.90;;;;;;5044657;28;20192;-83
2022/01/02 00:53:22;;;;;;;8.77;3.40;;;13.40;94.00;;;;;;5043996;28;20316;-84
2022/01/02 00:55:56;;;;;;;7.30;3.70;;;13.60;94.20;;;;;;5031815;28;20186;-83
2022/01/02 00:58:48;;;;;;;9.97;3.47;;;13.40;94.50;;;;;;5047155;28;20170;-81
2022/01/02 01:01:21;;;;;;;7.57;3.57;;;13.30;95.80;;;;;;5055753;28;20211;-80
2022/01/02 01:03:53;;;;;;;8.47;3.60;;;13.20;96.90;;;;;;5055440;28;20206;-82
2022/01/02 01:06:27;;;;;;;9.37;3.77;;;13.10;97.70;;;;;;5055144;28;20175;-81
2022/01/02 01:09:01;;;;;;;6.80;3.47;;;13.10;98.30;;;;;;5038232;28;20194;-81
2022/01/02 01:11:28;;;;;;;8.17;3.60;;;13.10;97.90;;;;;;5056750;28;20180;-80
2022/01/02 01:13:58;;;;;;;9.37;3.80;;;13.00;98.60;;;;;;5050232;28;20600;-82
2022/01/02 01:16:54;;;;;;;8.20;3.60;;;12.90;99.00;;;;;;5050122;28;20162;-82
2022/01/02 01:19:58;;;;;;;5.93;3.20;;;12.90;99.40;;;;;;5051839;28;20193;-82
2022/01/02 01:25:53;;;;;;;8.37;3.77;;;12.90;99.80;;;;;;5056652;28;20161;-82
2022/01/02 01:28:29;;;;;;;9.47;4.07;;;12.90;99.90;;;;;;5056905;28;20174;-80
2022/01/02 01:31:01;;;;;;;10.37;3.70;;;12.90;99.90;;;;;;5052052;28;20166;-81
2022/01/02 01:33:28;;;;;;;7.20;4.13;;;13.00;99.90;;;;;;5053740;28;20176;-80
2022/01/02 01:36:34;;;;;;;8.83;3.57;;;12.90;99.90;;;;;;5049956;28;20255;-84
2022/01/02 01:39:27;;;;;;;5.73;3.53;;;12.90;99.90;;;;;;5041105;28;20189;-88
2022/01/02 01:41:56;;;;;;;8.97;3.90;;;12.90;99.80;;;;;;5045845;28;20189;-91
2022/01/02 01:44:38;;;;;;;8.27;3.90;;;12.90;99.70;;;;;;5044338;28;20198;-83
2022/01/02 01:47:03;;;;;;;7.83;3.83;;;12.90;99.70;;;;;;5037195;28;20210;-85
2022/01/02 01:49:31;;;;;;;5.63;3.60;;;12.90;99.90;;;;;;5059301;28;20163;-88
2022/01/02 01:51:57;;;;;;;8.93;3.43;;;12.80;99.90;;;;;;5059140;28;20189;-82
2022/01/02 01:54:26;;;;;;;8.30;3.77;;;12.60;99.90;;;;;;5059873;28;20157;-81
2022/01/02 01:56:55;;;;;;;6.47;3.87;;;12.80;99.90;;;;;;5058087;28;20185;-89
2022/01/02 01:59:27;;;;;;;11.33;3.67;;;12.80;99.90;;;;;;5059549;28;20152;-84
2022/01/02 02:02:43;;;;;;;7.63;3.63;;;12.90;99.90;;;;;;5059948;28;20163;-81
2022/01/02 02:05:18;;;;;;;9.23;3.63;;;12.80;99.70;;;;;;5049559;28;20215;-80
2022/01/02 02:07:57;;;;;;;7.10;3.40;;;12.80;99.50;;;;;;5041530;28;20176;-89
2022/01/02 02:10:57;;;;;;;8.60;3.70;;;12.80;99.50;;;;;;5037278;28;20290;-92
2022/01/02 02:13:39;;;;;;;7.37;3.87;;;12.90;99.10;;;;;;5036829;28;20161;-92
2022/01/02 02:16:05;;;;;;;8.37;4.47;;;13.00;99.20;;;;;;5038957;28;20172;-86
2022/01/02 02:18:32;;;;;;;7.70;4.30;;;12.90;99.00;;;;;;5045861;28;20171;-91
2022/01/02 02:21:00;;;;;;;8.60;4.00;;;12.80;99.10;;;;;;5045143;28;20181;-91
2022/01/02 02:23:34;;;;;;;8.37;4.17;;;12.90;99.10;;;;;;5051565;28;20190;-82
2022/01/02 02:26:02;;;;;;;9.20;3.90;;;12.90;98.90;;;;;;5059545;28;20154;-82
2022/01/02 02:28:35;;;;;;;8.20;3.67;;;13.00;98.50;;;;;;5051546;28;20225;-82
2022/01/02 02:34:44;;;;;;;6.63;3.03;;;12.90;98.00;;;;;;5044333;28;20242;-81
2022/01/02 02:37:16;;;;;;;7.47;3.43;;;12.80;97.60;;;;;;5042766;28;20525;-83
2022/01/02 02:39:45;;;;;;;8.33;3.50;;;12.80;97.20;;;;;;5042423;28;20274;-91
2022/01/02 02:42:24;;;;;;;9.23;4.47;;;12.80;97.00;;;;;;5048535;28;20170;-91
2022/01/02 02:44:57;;;;;;;6.90;2.97;;;12.80;96.80;;;;;;5042060;28;20181;-83
2022/01/02 02:50:09;;;;;;;8.10;3.30;;;12.80;96.30;;;;;;5041790;28;20160;-79
2022/01/02 02:52:43;;;;;;;7.53;3.40;;;12.90;96.00;;;;;;5023049;28;20292;-86
2022/01/02 02:55:12;;;;;;;8.20;3.20;;;13.00;96.00;;;;;;5036056;28;20173;-84
2022/01/02 02:57:57;;;;;;;6.10;3.60;;;13.20;94.70;;;;;;5034246;28;20170;-88
2022/01/02 03:00:24;;;;;;;7.73;3.10;;;13.30;93.80;;;;;;5035036;28;20170;-90
2022/01/02 03:02:50;;;;;;;6.77;3.30;;;13.50;92.30;;;;;;5035966;28;20264;-91
2022/01/02 03:05:17;;;;;;;5.73;2.60;;;13.50;92.00;;;;;;5035505;28;20175;-90
2022/01/02 03:07:43;;;;;;;5.43;3.00;;;13.40;92.50;;;;;;5035369;28;20175;-86
2022/01/02 03:10:10;;;;;;;6.40;3.30;;;13.30;93.20;;;;;;5034770;28;20263;-88
2022/01/02 03:12:36;;;;;;;5.60;2.93;;;13.20;94.20;;;;;;5035249;28;20196;-89
2022/01/02 03:15:01;;;;;;;6.63;2.80;;;13.00;95.00;;;;;;5035541;28;20234;-92
2022/01/02 03:17:27;;;;;;;6.10;3.30;;;12.90;95.50;;;;;;5034734;28;20541;-89
2022/01/02 03:19:53;;;;;;;6.63;3.07;;;12.90;95.80;;;;;;5036772;28;20231;-88
2022/01/02 03:22:18;;;;;;;7.93;3.20;;;13.00;96.10;;;;;;5035026;28;20760;-84
2022/01/02 03:24:46;;;;;;;6.73;2.87;;;12.90;96.00;;;;;;5034673;28;20179;-85
2022/01/02 03:27:11;;;;;;;4.33;2.60;;;12.90;96.10;;;;;;5035771;28;20176;-85
2022/01/02 03:29:37;;;;;;;8.43;4.13;;;12.80;96.40;;;;;;5037046;28;20198;-82
2022/01/02 03:32:03;;;;;;;7.13;2.93;;;12.80;96.60;;;;;;5041494;28;20215;-90
2022/01/02 03:34:29;;;;;;;6.60;3.10;;;12.80;96.90;;;;;;5036860;28;20167;-84
2022/01/02 03:36:54;;;;;;;6.27;3.10;;;12.80;96.90;;;;;;5042170;28;20645;-88
2022/01/02 03:39:20;;;;;;;7.20;3.27;;;12.80;96.80;;;;;;5046458;28;20190;-80
2022/01/02 03:41:46;;;;;;;6.97;3.40;;;12.70;96.50;;;;;;5052289;28;20170;-80
2022/01/02 03:44:12;;;;;;;9.00;3.07;;;12.80;96.40;;;;;;5052529;28;20211;-83
2022/01/02 03:46:38;;;;;;;7.70;3.30;;;12.80;96.00;;;;;;5039980;28;20178;-81
2022/01/02 03:49:05;;;;;;;6.83;2.87;;;12.80;95.80;;;;;;5053181;28;20664;-80
2022/01/02 03:51:30;;;;;;;5.33;2.53;;;12.80;95.40;;;;;;5053052;28;20189;-79
2022/01/02 03:53:59;;;;;;;6.50;3.47;;;12.80;95.30;;;;;;5050655;28;20193;-80
2022/01/02 03:56:25;;;;;;;7.27;3.13;;;12.80;95.10;;;;;;5050544;28;20772;-80
2022/01/02 03:58:50;;;;;;;6.07;3.30;;;12.80;95.10;;;;;;5049865;28;20158;-81
2022/01/02 04:01:16;;;;;;;6.17;2.83;;;12.90;94.80;;;;;;5050922;28;20182;-78
2022/01/02 04:03:42;;;;;;;5.70;2.90;;;12.90;94.50;;;;;;5053993;28;20219;-82
2022/01/02 04:06:08;;;;;;;7.43;3.00;;;13.00;94.30;;;;;;5057020;28;20175;-79
2022/01/02 04:08:33;;;;;;;8.57;3.00;;;13.10;94.10;;;;;;5057371;28;20182;-81
2022/01/02 04:10:59;;;;;;;6.60;2.83;;;13.00;93.90;;;;;;5055749;28;20158;-82
2022/01/02 04:13:27;;;;;;;9.37;2.97;;;13.00;93.90;;;;;;5054940;28;20201;-80
2022/01/02 04:15:52;;;;;;;7.43;3.27;;;13.00;93.70;;;;;;5051831;28;20190;-80
2022/01/02 04:18:46;;;;;;;5.70;2.90;;;13.00;93.90;;;;;;5051292;28;20182;-80
2022/01/02 04:22:05;;;;;;;5.33;3.07;;;13.00;93.90;;;;;;5057268;28;20183;-81
2022/01/02 04:24:31;;;;;;;5.63;2.83;;;13.00;93.90;;;;;;5056994;28;20176;-82
2022/01/02 04:27:00;;;;;;;8.30;3.33;;;13.00;94.10;;;;;;5057070;28;20162;-87
2022/01/02 04:29:27;;;;;;;5.40;2.70;;;13.00;94.50;;;;;;5057562;28;20178;-85
2022/01/02 04:31:55;;;;;;;7.83;2.87;;;13.00;94.30;;;;;;5057465;28;20163;-82
2022/01/02 04:34:45;;;;;;;4.80;2.57;;;13.00;94.30;;;;;;5057937;28;20144;-84
2022/01/02 04:37:47;;;;;;;6.20;2.93;;;13.00;94.20;;;;;;5052967;28;20261;-89
2022/01/02 04:43:51;;;;;;;4.50;3.00;;;13.10;94.40;;;;;;5051262;28;20214;-90
2022/01/02 04:49:39;;;;;;;6.60;2.53;;;13.10;94.10;;;;;;5061599;28;20172;-83
2022/01/02 04:52:07;;;;;;;6.07;3.30;;;13.20;94.20;;;;;;5061318;28;20145;-84
2022/01/02 04:57:55;;;;;;;6.50;3.17;;;13.10;94.40;;;;;;5056467;28;20228;-87
2022/01/02 05:00:24;;;;;;;6.90;2.53;;;13.10;94.50;;;;;;5058068;28;20170;-87
2022/01/02 05:03:01;;;;;;;6.20;2.73;;;13.10;94.80;;;;;;5059959;28;20218;-84
2022/01/02 05:09:36;;;;;;;4.33;2.40;;;13.00;94.90;;;;;;5046831;28;20239;-85
2022/01/02 05:12:08;;;;;;;4.73;2.43;;;13.00;95.20;;;;;;5044566;28;20184;-90
2022/01/02 05:17:57;;;;;;;8.50;3.33;;;13.00;95.40;;;;;;5060652;28;20174;-80
2022/01/02 05:20:32;;;;;;;5.50;2.60;;;13.00;95.10;;;;;;5053442;28;20155;-82
2022/01/02 05:23:53;;;;;;;4.53;2.50;;;13.00;95.40;;;;;;5060913;28;20189;-81
2022/01/02 05:27:03;;;;;;;6.03;2.97;;;13.00;95.20;;;;;;5050463;28;20174;-81
2022/01/02 05:32:50;;;;;;;6.40;2.97;;;13.10;94.40;;;;;;5046496;28;20228;-89
2022/01/02 05:35:17;;;;;;;5.23;2.77;;;12.90;94.40;;;;;;5041195;28;20173;-85
2022/01/02 05:37:43;;;;;;;6.53;2.97;;;12.90;94.50;;;;;;5038912;28;20238;-81
2022/01/02 05:40:14;;;;;;;6.83;2.60;;;13.00;94.20;;;;;;5039279;28;20217;-89
2022/01/02 05:42:42;;;;;;;3.83;2.53;;;13.10;94.00;;;;;;5037409;28;20222;-90
2022/01/02 05:45:08;;;;;;;5.50;3.07;;;13.20;92.90;;;;;;5056188;28;20150;-85
2022/01/02 05:47:36;;;;;;;5.17;2.47;;;13.20;92.30;;;;;;5059344;28;20167;-84
2022/01/02 05:50:02;;;;;;;5.57;2.33;;;13.20;92.10;;;;;;5052672;28;20181;-82
2022/01/02 05:52:31;;;;;;;3.60;2.40;;;13.10;91.30;;;;;;5051831;28;20184;-86
2022/01/02 05:55:00;;;;;;;4.60;2.40;;;13.00;91.50;;;;;;5038760;28;20159;-88
2022/01/02 05:58:00;;;;;;;3.43;2.53;;;13.00;91.40;;;;;;5037012;28;20170;-85
2022/01/02 06:00:25;;;;;;;5.77;2.80;;;13.00;91.30;;;;;;5038685;28;20176;-90
2022/01/02 06:02:51;;;;;;;5.70;2.67;;;13.00;91.40;;;;;;5038187;28;20221;-90
2022/01/02 06:05:17;;;;;;;5.80;2.70;;;13.00;91.20;;;;;;5037677;28;20180;-84
2022/01/02 06:07:42;;;;;;;5.77;2.67;;;13.00;91.00;;;;;;5037673;28;20263;-87
2022/01/02 06:10:08;;;;;;;4.87;2.70;;;12.90;90.50;;;;;;5047276;28;20681;-86
2022/01/02 06:12:34;;;;;;;5.67;2.43;;;12.90;90.30;;;;;;5049096;28;20186;-87
2022/01/02 06:15:00;;;;;;;5.07;2.33;;;13.00;90.20;;;;;;5035849;28;20233;-82
2022/01/02 06:17:26;;;;;;;4.60;2.43;;;13.00;90.00;;;;;;5034930;28;20162;-91
2022/01/02 06:19:53;;;;;;;4.17;2.10;;;13.00;89.40;;;;;;5037160;28;20180;-81
2022/01/02 06:22:19;;;;;;;4.00;2.10;;;13.00;87.40;;;;;;5036010;28;20563;-92
2022/01/02 06:24:45;;;;;;;4.00;2.60;;;13.10;86.60;;;;;;5036972;28;20267;-83
2022/01/02 06:27:10;;;;;;;3.17;2.20;;;13.10;85.50;;;;;;5036122;28;20240;-91
2022/01/02 06:29:36;;;;;;;3.67;2.30;;;13.20;85.20;;;;;;5037568;28;20202;-87
2022/01/02 06:32:03;;;;;;;5.20;2.20;;;13.20;83.70;;;;;;5043610;28;20186;-82
2022/01/02 06:34:29;;;;;;;3.23;2.03;;;13.20;82.90;;;;;;5053641;28;20173;-86
2022/01/02 06:36:55;;;;;;;5.43;2.07;;;13.20;81.90;;;;;;5057173;28;20210;-83
2022/01/02 06:39:20;;;;;;;5.03;2.33;;;13.30;80.90;;;;;;5057821;28;20178;-85
2022/01/02 06:41:51;;;;;;;2.67;1.87;;;13.30;80.50;;;;;;5058550;28;20173;-84
2022/01/02 06:44:17;;;;;;;5.10;2.37;;;13.30;79.10;;;;;;5052108;28;20245;-90
2022/01/02 06:46:48;;;;;;;4.37;2.10;;;13.40;77.60;;;;;;5051528;28;20668;-84
2022/01/02 06:49:17;;;;;;;5.33;2.30;;;13.60;74.60;;;;;;5049294;28;20173;-84
2022/01/02 06:55:05;;;;;;;4.03;2.30;;;14.00;67.40;;;;;;5045155;28;20187;-83
2022/01/02 06:57:32;;;;;;;4.83;2.20;;;14.00;64.50;;;;;;5046383;28;20205;-80
2022/01/02 06:59:57;;;;;;;3.40;2.10;;;13.90;65.10;;;;;;5050030;28;20178;-84
2022/01/02 07:02:38;;;;;;;6.27;2.10;;;14.00;64.10;;;;;;5036375;28;20268;-90
2022/01/02 07:05:04;;;;;;;6.33;2.10;;;13.90;62.00;;;;;;5036685;28;20196;-86
2022/01/02 07:07:30;;;;;;;3.47;1.83;;;13.80;63.40;;;;;;5036977;28;20164;-92
2022/01/02 07:09:59;;;;;;;4.33;2.23;;;13.80;64.30;;;;;;5038979;28;20175;-87
2022/01/02 07:12:25;;;;;;;5.10;2.43;;;13.70;66.40;;;;;;5045664;28;20178;-81
2022/01/02 07:14:51;;;;;;;3.23;1.97;;;13.70;68.70;;;;;;5047856;28;20321;-89
2022/01/02 07:17:17;;;;;;;4.60;2.47;;;13.70;68.60;;;;;;5039453;28;20197;-81
2022/01/02 07:19:46;;;;;;;4.83;2.10;;;13.60;69.30;;;;;;5037591;28;20202;-81
2022/01/02 07:22:11;;;;;;;3.43;2.20;;;13.70;65.90;;;;;;5037273;28;20170;-88
2022/01/02 07:24:38;;;;;;;4.90;2.67;;;13.80;65.20;;;;;;5036996;28;20179;-87
2022/01/02 07:27:04;;;;;;;4.87;2.50;;;13.60;64.00;;;;;;5053609;28;20163;-83
2022/01/02 07:29:30;;;;;;;3.50;2.13;;;13.60;63.60;;;;;;5052569;28;20196;-85
2022/01/02 07:31:56;;;;;;;5.37;2.57;;;13.70;62.80;;;;;;5048960;28;20190;-91
2022/01/02 07:34:54;;;;;;;4.30;2.30;;;13.80;60.90;;;;;;5041227;28;20155;-83
2022/01/02 07:37:21;;;;;;;4.90;2.40;;;13.70;60.20;;;;;;5038440;28;20180;-90
2022/01/02 07:39:47;;;;;;;4.20;2.50;;;13.70;59.90;;;;;;5040353;28;20194;-91
2022/01/02 07:42:13;;;;;;;7.13;2.53;;;13.60;62.80;;;;;;5036098;28;20174;-91
2022/01/02 07:44:39;;;;;;;5.30;2.63;;;13.60;62.90;;;;;;5047187;28;20177;-79
2022/01/02 07:47:06;;;;;;;4.17;2.47;;;13.60;63.80;;;;;;5052299;28;20177;-79
2022/01/02 07:49:32;;;;;;;5.53;2.53;;;13.60;64.90;;;;;;5054583;28;20180;-82
2022/01/02 07:51:58;;;;;;;6.53;2.80;;;13.60;64.60;;;;;;5055911;28;20154;-85
2022/01/02 07:54:28;;;;;;;6.17;2.63;;;13.70;64.10;;;;;;5056424;28;20166;-82
2022/01/02 07:56:54;;;;;;;7.67;2.70;;;13.70;65.60;;;;;;5057269;28;20184;-83
2022/01/02 07:59:19;;;;;;;5.57;2.60;;;13.50;65.90;;;;;;5055439;28;20170;-81
2022/01/02 08:02:04;;;;;;;7.73;3.23;;;13.50;67.40;;;;;;5052846;28;20192;-86
2022/01/02 08:04:36;;;;;;;4.20;2.63;;;13.40;70.00;;;;;;5035246;28;20205;-82
2022/01/02 08:07:05;;;;;;;5.10;2.87;;;13.40;69.80;;;;;;5057200;28;20205;-81
2022/01/02 08:10:15;;;;;;;5.23;3.00;;;13.50;67.70;;;;;;5056872;28;20178;-79
2022/01/02 08:13:07;;;;;;;5.33;3.17;;;13.40;69.80;;;;;;5057980;28;20190;-80
2022/01/02 08:15:51;;;;;;;4.47;3.00;;;13.40;70.10;;;;;;5060887;28;20159;-81
2022/01/02 08:18:17;;;;;;;6.47;3.97;;;13.30;72.50;;;;;;5041978;28;20176;-81
2022/01/02 08:20:47;;;;;;;4.83;3.00;;;13.30;72.90;;;;;;5057739;28;20190;-87
2022/01/02 08:23:16;;;;;;;5.13;3.30;;;13.30;72.80;;;;;;5048940;28;20204;-93
2022/01/02 08:25:55;;;;;;;5.87;3.40;;;13.30;73.70;;;;;;5045685;28;20249;-86
2022/01/02 08:28:22;;;;;;;4.93;3.20;;;13.20;74.60;;;;;;5056038;28;20155;-85
2022/01/02 08:30:48;;;;;;;8.67;3.70;;;13.20;75.60;;;;;;5051591;28;20172;-90
2022/01/02 08:33:16;;;;;;;4.53;3.20;;;13.20;76.70;;;;;;5051782;28;20182;-93
2022/01/02 08:35:45;;;;;;;5.83;3.10;;;13.20;76.90;;;;;;5047304;28;20178;-90
2022/01/02 08:38:12;;;;;;;6.20;3.50;;;13.50;76.20;;;;;;5061489;28;20334;-83
2022/01/02 08:40:42;;;;;;;8.43;3.17;;;13.20;77.00;;;;;;5061089;28;20154;-81
2022/01/02 08:43:08;;;;;;;5.93;3.67;;;13.30;76.40;;;;;;5057339;28;20282;-80
2022/01/02 08:45:47;;;;;;;7.67;3.47;;;13.30;78.40;;;;;;5060733;28;20181;-81
2022/01/02 08:48:15;;;;;;;7.10;3.97;;;13.30;79.10;;;;;;5059291;28;20194;-82
2022/01/02 08:50:53;;;;;;;6.27;3.60;;;13.30;79.60;;;;;;5057876;28;20219;-81
2022/01/02 08:53:35;;;;;;;7.90;3.67;;;13.30;80.20;;;;;;5051535;28;20183;-92
2022/01/02 08:56:15;;;;;;;10.53;4.10;;;13.30;81.00;;;;;;5046170;28;20640;-89
2022/01/02 08:58:49;;;;;;;6.23;4.27;;;13.40;80.70;;;;;;5042382;28;20150;-92
2022/01/02 09:01:15;;;;;;;5.93;3.87;;;13.30;82.50;;;;;;5045565;28;20197;-91
2022/01/02 09:03:58;;;;;;;7.03;3.97;;;13.30;83.00;;;;;;5043166;28;20224;-92
2022/01/02 09:06:26;;;;;;;6.60;4.00;;;13.30;82.00;;;;;;5043482;28;20174;-92
2022/01/02 09:08:53;;;;;;;6.00;4.20;;;13.40;82.20;;;;;;5050075;28;20184;-85
2022/01/02 09:11:26;;;;;;;6.10;4.10;;;13.40;82.60;;;;;;5059967;28;20211;-85
2022/01/02 09:13:52;;;;;;;5.67;4.10;;;13.40;82.80;;;;;;5060372;28;20183;-83
2022/01/02 09:16:23;;;;;;;7.13;4.33;;;13.50;82.10;;;;;;5059773;28;20163;-81
2022/01/02 09:18:49;;;;;;;6.20;3.93;;;13.40;83.20;;;;;;5040113;28;20250;-83
2022/01/02 09:21:30;;;;;;;7.00;4.43;;;13.50;83.70;;;;;;5042997;28;20208;-93
2022/01/02 09:24:41;;;;;;;7.53;4.30;;;13.40;83.00;;;;;;5043642;28;20230;-94
2022/01/02 09:27:07;;;;;;;8.87;4.30;;;13.40;84.00;;;;;;5044650;28;20186;-93
2022/01/02 09:29:43;;;;;;;6.77;4.37;;;13.40;85.10;;;;;;5052583;28;20175;-84
2022/01/02 09:32:09;;;;;;;5.63;3.97;;;13.70;84.80;;;;;;5041863;28;20159;-88
2022/01/02 09:34:37;;;;;;;8.20;4.20;;;13.40;85.20;;;;;;5056709;28;20174;-92
2022/01/02 09:37:09;;;;;;;5.67;3.93;;;13.50;84.80;;;;;;5051531;28;20203;-92
2022/01/02 09:39:35;;;;;;;6.63;4.73;;;13.50;85.00;;;;;;5051623;28;20648;-94
2022/01/02 09:42:04;;;;;;;5.73;4.40;;;13.60;84.60;;;;;;5049397;28;20213;-92
2022/01/02 09:44:31;;;;;;;6.37;4.37;;;13.60;84.70;;;;;;5045217;28;20206;-94
2022/01/02 09:47:04;;;;;;;7.20;4.67;;;13.60;85.80;;;;;;5043044;28;20251;-90
2022/01/02 09:49:31;;;;;;;6.83;4.10;;;13.50;86.80;;;;;;5010316;28;20296;-83
2022/01/02 09:51:59;;;;;;;10.13;4.37;;;13.40;87.70;;;;;;5042363;28;20209;-82
2022/01/02 09:54:28;;;;;;;5.27;3.73;;;13.60;88.00;;;;;;5039163;28;20178;-88
2022/01/02 09:56:54;;;;;;;6.53;4.20;;;13.40;88.60;;;;;;5041410;28;20176;-90
2022/01/02 09:59:19;;;;;;;7.07;4.20;;;13.40;89.10;;;;;;5042394;28;20197;-89
2022/01/02 10:01:45;;;;;;;6.13;4.13;;;13.50;88.40;;;;;;5040491;28;20189;-87
2022/01/02 10:04:11;;;;;;;5.90;4.13;;;13.50;88.70;;;;;;5040496;28;20205;-84
2022/01/02 10:06:40;;;;;;;10.10;4.40;;;13.50;90.00;;;;;;5037264;28;20634;-90
2022/01/02 10:09:09;;;;;;;7.37;4.10;;;13.50;90.00;;;;;;5039352;28;20227;-94
2022/01/02 10:11:37;;;;;;;9.37;4.00;;;13.50;90.00;;;;;;5042535;28;20202;-87
2022/01/02 10:14:05;;;;;;;5.83;3.63;;;13.60;88.80;;;;;;5038030;28;20197;-93
2022/01/02 10:16:34;;;;;;;7.70;3.97;;;13.60;88.60;;;;;;5043532;28;20179;-89
2022/01/02 10:19:29;;;;;;;7.47;4.13;;;13.50;90.10;;;;;;5040984;28;20191;-87
2022/01/02 10:21:58;;;;;;;7.30;3.97;;;13.50;90.40;;;;;;5041825;28;20170;-93
2022/01/02 10:24:27;;;;;;;6.43;3.97;;;13.60;90.40;;;;;;5041844;28;20208;-92
2022/01/02 10:27:09;;;;;;;7.60;3.90;;;13.50;90.70;;;;;;5038699;28;20579;-87
2022/01/02 10:30:08;;;;;;;7.30;4.10;;;13.50;91.10;;;;;;5043462;28;20177;-91
2022/01/02 10:32:39;;;;;;;8.50;3.97;;;13.50;90.90;;;;;;4996278;28;20555;-91
2022/01/02 10:35:09;;;;;;;10.97;4.43;;;13.50;90.50;;;;;;5041300;28;20673;-93
2022/01/02 10:37:40;;;;;;;5.60;3.87;;;13.40;91.30;;;;;;5047135;28;20158;-92
2022/01/02 10:40:40;;;;;;;6.17;4.20;;;13.50;91.50;;;;;;5055988;28;20193;-90
2022/01/02 10:43:30;;;;;;;8.17;4.20;;;13.50;91.40;;;;;;5041634;28;20207;-89
2022/01/02 10:46:03;;;;;;;9.20;4.47;;;13.50;91.30;;;;;;5043268;28;20193;-93
2022/01/02 10:48:39;;;;;;;6.80;4.07;;;13.60;91.00;;;;;;5051689;28;20162;-90
2022/01/02 10:51:14;;;;;;;9.43;3.87;;;13.70;91.10;;;;;;5044948;28;20249;-89
2022/01/02 10:54:03;;;;;;;9.07;3.80;;;13.80;90.80;;;;;;5043568;28;20157;-92
2022/01/02 10:56:38;;;;;;;6.87;4.10;;;13.80;90.30;;;;;;5055602;28;20186;-85
2022/01/02 10:59:04;;;;;;;8.30;4.40;;;13.70;90.90;;;;;;5064937;28;20194;-91
2022/01/02 11:01:30;;;;;;;10.23;4.57;;;13.80;90.90;;;;;;5059496;28;20176;-88
2022/01/02 11:03:58;;;;;;;7.90;3.70;;;14.00;90.30;;;;;;5066577;28;20228;-90
2022/01/02 11:06:36;;;;;;;6.67;3.60;;;14.00;90.20;;;;;;5071964;28;20184;-82
2022/01/02 11:09:20;;;;;;;7.17;3.73;;;13.90;90.60;;;;;;5058619;28;20883;-80
2022/01/02 11:12:00;;;;;;;6.40;4.17;;;13.90;91.00;;;;;;5075956;28;20167;-82
2022/01/02 11:14:26;;;;;;;8.10;3.60;;;14.00;90.90;;;;;;5041539;28;20190;-81
2022/01/02 11:16:55;;;;;;;6.37;3.53;;;14.10;90.10;;;;;;5076776;28;20166;-90
2022/01/02 11:19:25;;;;;;;6.17;3.33;;;14.30;89.70;;;;;;5078026;28;20171;-83
2022/01/02 11:21:55;;;;;;;8.10;3.87;;;14.20;90.20;;;;;;5076113;28;20197;-80
2022/01/02 11:24:27;;;;;;;9.37;4.13;;;14.00;91.20;;;;;;5075556;28;20270;-86
2022/01/02 11:27:44;;;;;;;9.90;3.93;;;14.00;91.10;;;;;;5076691;28;20212;-80
2022/01/02 11:30:33;;;;;;;7.23;3.90;;;14.10;91.00;;;;;;5028120;28;20555;-80
2022/01/02 11:33:09;;;;;;;9.07;4.30;;;14.00;91.30;;;;;;5066625;28;20157;-86
2022/01/02 11:35:47;;;;;;;8.70;4.00;;;13.90;92.00;;;;;;5066921;28;20174;-81
2022/01/02 11:38:17;;;;;;;6.13;3.70;;;13.90;92.50;;;;;;5067635;28;20173;-83
2022/01/02 11:40:59;;;;;;;8.57;4.20;;;14.00;92.20;;;;;;5070490;28;20208;-87
2022/01/02 11:43:37;;;;;;;9.97;4.13;;;13.90;92.30;;;;;;5073780;28;20193;-87
2022/01/02 11:46:30;;;;;;;7.60;3.80;;;13.90;92.40;;;;;;5068649;28;20661;-88
2022/01/02 11:49:05;;;;;;;8.67;4.20;;;13.90;92.70;;;;;;5068367;28;20219;-85
2022/01/02 11:55:24;;;;;;;7.63;4.40;;;14.00;92.50;;;;;;5082045;28;20190;-84
2022/01/02 11:57:53;;;;;;;8.33;4.17;;;14.00;92.10;;;;;;5075592;28;20177;-82
2022/01/02 12:00:50;;;;;;;9.73;4.23;;;14.00;92.00;;;;;;5077662;28;20176;-88
2022/01/02 12:03:52;;;;;;;9.03;3.90;;;14.00;92.00;;;;;;5075925;28;20282;-89
2022/01/02 12:06:33;;;;;;;7.57;3.73;;;14.10;92.30;;;;;;5068392;28;20166;-86
2022/01/02 12:12:22;;;;;;;7.50;3.73;;;14.20;91.50;;;;;;5065376;28;20247;-82
2022/01/02 12:14:54;;;;;;;7.23;3.33;;;14.40;91.20;;;;;;5063482;28;20174;-90
2022/01/02 12:17:23;;;;;;;7.70;3.70;;;14.40;90.30;;;;;;5071031;28;20166;-82
2022/01/02 12:20:03;;;;;;;7.57;3.47;;;14.50;90.70;;;;;;5079053;28;20170;-80
2022/01/02 12:22:44;;;;;;;10.27;3.73;;;14.50;90.30;;;;;;5080025;28;20191;-80
2022/01/02 12:25:19;;;;;;;8.63;3.30;;;14.50;90.10;;;;;;5070118;28;20180;-79
2022/01/02 12:28:20;;;;;;;8.77;3.47;;;14.50;90.00;;;;;;5074840;28;20145;-82
2022/01/02 12:30:52;;;;;;;8.57;3.40;;;14.50;90.30;;;;;;5079738;28;20161;-81
2022/01/02 12:33:42;;;;;;;7.60;3.57;;;14.50;90.60;;;;;;5077017;28;20154;-82
2022/01/02 12:36:27;;;;;;;8.50;3.97;;;14.50;90.70;;;;;;5077467;28;20230;-89
2022/01/02 12:42:36;;;;;;;8.00;3.00;;;14.70;90.30;;;;;;5080029;28;20270;-85
2022/01/02 12:45:12;;;;;;;7.00;3.37;;;14.50;90.40;;;;;;5080103;28;20192;-84
2022/01/02 12:47:51;;;;;;;11.43;3.57;;;14.50;91.20;;;;;;5079691;28;20187;-87
2022/01/02 12:50:57;;;;;;;8.13;3.10;;;14.50;91.00;;;;;;5060219;28;20178;-80
2022/01/02 12:53:42;;;;;;;8.07;3.67;;;14.40;91.10;;;;;;5060360;28;20218;-81
2022/01/02 12:56:32;;;;;;;6.30;2.97;;;14.40;92.00;;;;;;5043525;28;20165;-88
2022/01/02 13:02:28;;;;;;;7.97;3.00;;;14.40;91.20;;;;;;5059989;28;20159;-80
2022/01/02 13:05:20;;;;;;;7.13;3.00;;;14.50;90.70;;;;;;5059843;28;20191;-80
2022/01/02 13:08:30;;;;;;;6.43;2.73;;;14.40;90.30;;;;;;5060096;28;20151;-81
2022/01/02 13:11:11;;;;;;;7.10;2.60;;;14.50;90.30;;;;;;5059671;28;20177;-81
2022/01/02 13:14:29;;;;;;;5.10;2.60;;;14.40;90.20;;;;;;5059813;28;20186;-90
2022/01/02 13:17:08;;;;;;;8.07;2.73;;;14.40;90.00;;;;;;5058063;28;20157;-89
2022/01/02 13:23:26;;;;;;;5.43;2.50;;;14.40;89.40;;;;;;5058158;28;20207;-93
2022/01/02 13:26:30;;;;;;;7.73;2.93;;;14.30;90.50;;;;;;5058342;28;20185;-85
2022/01/02 13:29:34;;;;;;;9.00;2.67;;;14.20;91.70;;;;;;5056335;28;20180;-90
2022/01/02 13:32:21;;;;;;;4.87;2.80;;;14.20;92.50;;;;;;5057915;28;20168;-83
2022/01/02 13:35:29;;;;;;;7.00;3.20;;;14.20;93.20;;;;;;5056180;28;20172;-91
2022/01/02 13:38:26;;;;;;;6.27;3.17;;;14.20;93.40;;;;;;5056486;28;20168;-80
2022/01/02 13:41:16;;;;;;;6.43;3.07;;;14.30;93.50;;;;;;5058398;28;20196;-80
2022/01/02 13:44:32;;;;;;;6.50;3.00;;;14.20;93.90;;;;;;5040609;28;20252;-88
2022/01/02 13:50:37;;;;;;;7.10;2.87;;;14.20;93.40;;;;;;5057730;28;20214;-81
2022/01/02 13:53:29;;;;;;;7.27;3.13;;;14.10;93.70;;;;;;5059012;28;20187;-80
2022/01/02 13:56:31;;;;;;;7.93;3.60;;;14.10;94.10;;;;;;5058543;28;20243;-80
2022/01/02 13:59:01;;;;;;;7.63;2.90;;;14.20;93.70;;;;;;5058138;28;20200;-90
2022/01/02 14:01:44;;;;;;;8.90;3.00;;;14.20;93.60;;;;;;5039029;28;20177;-87
2022/01/02 14:04:13;;;;;;;9.03;3.03;;;14.30;93.50;;;;;;5054631;28;20749;-88
2022/01/02 14:07:29;;;;;;;5.37;3.10;;;14.30;93.60;;;;;;5051863;28;20223;-86
2022/01/02 14:10:09;;;;;;;6.70;2.80;;;14.30;93.80;;;;;;5034769;28;20188;-95
2022/01/02 14:12:39;;;;;;;7.47;3.07;;;14.20;94.10;;;;;;5052155;28;20185;-93
2022/01/02 14:15:36;;;;;;;6.73;3.10;;;14.10;94.30;;;;;;5054087;28;20173;-86
2022/01/02 14:18:30;;;;;;;7.43;3.27;;;14.20;93.70;;;;;;5052358;28;20623;-86
2022/01/02 14:21:35;;;;;;;10.60;3.90;;;14.10;94.40;;;;;;5055013;28;20232;-95
2022/01/02 14:24:02;;;;;;;8.90;3.23;;;14.10;94.80;;;;;;5051208;28;20203;-95
2022/01/02 14:26:28;;;;;;;7.57;3.00;;;14.00;94.80;;;;;;5051853;28;20183;-91
2022/01/02 14:28:58;;;;;;;9.23;3.13;;;14.00;94.90;;;;;;5054672;28;20175;-93